Time;durP1;ratioP1;P1;durP2;ratioP2;P2;SDS_P1;SDS_P2;PMS_P1;PMS_P2;Temp;Humidity;BMP_temperature;BMP_pressure;BME280_temperature;BME280_humidity;BME280_pressure;Samples;Min_cycle;Max_cycle;Signal;HPM_P1;HPM_P2
2022/08/19 00:00:44;;;;;;;17.52;9.18;;;;;;;19.93;100.00;95757.56;5038288;28;20216;-72
2022/08/19 00:03:11;;;;;;;18.25;10.05;;;;;;;20.02;100.00;95753.44;5037941;28;20642;-72
2022/08/19 00:05:37;;;;;;;21.80;10.13;;;;;;;19.93;100.00;95762.91;5038242;28;20225;-72
2022/08/19 00:08:05;;;;;;;19.00;10.02;;;;;;;19.93;100.00;95765.59;5038532;28;20204;-72
2022/08/19 00:10:32;;;;;;;23.13;11.07;;;;;;;19.85;100.00;95763.31;5038538;28;20212;-72
2022/08/19 00:12:58;;;;;;;20.50;10.00;;;;;;;19.81;100.00;95766.75;5038028;28;20705;-72
2022/08/19 00:15:24;;;;;;;21.45;11.15;;;;;;;19.91;100.00;95758.91;5038366;28;20236;-72
2022/08/19 00:17:51;;;;;;;25.30;13.60;;;;;;;19.85;100.00;95755.28;5038015;28;20208;-72
2022/08/19 00:20:21;;;;;;;21.27;11.88;;;;;;;19.86;100.00;95750.78;5035325;28;20224;-72
2022/08/19 00:22:48;;;;;;;26.15;12.60;;;;;;;19.68;100.00;95759.84;5037548;28;20212;-72
2022/08/19 00:25:18;;;;;;;25.05;13.63;;;;;;;19.90;100.00;95749.22;5038132;28;20327;-72
2022/08/19 00:27:44;;;;;;;26.45;14.30;;;;;;;19.81;100.00;95748.81;5037917;28;20654;-72
2022/08/19 00:30:12;;;;;;;28.70;14.27;;;;;;;19.85;100.00;95757.16;5037850;28;20201;-72
2022/08/19 00:32:39;;;;;;;27.75;13.93;;;;;;;20.00;100.00;95762.78;5037050;28;20220;-72
2022/08/19 00:35:06;;;;;;;26.70;14.95;;;;;;;19.91;100.00;95762.38;5038001;28;20319;-72
2022/08/19 00:37:34;;;;;;;33.15;14.82;;;;;;;19.95;100.00;95763.50;5038025;28;20262;-72
2022/08/19 00:40:02;;;;;;;32.05;15.88;;;;;;;19.86;100.00;95756.91;5037450;28;20205;-72
2022/08/19 00:42:30;;;;;;;25.27;13.82;;;;;;;19.92;100.00;95761.31;5036894;28;21098;-72
2022/08/19 00:44:56;;;;;;;32.85;16.88;;;;;;;19.90;100.00;95774.09;5037324;28;20240;-72
2022/08/19 00:47:23;;;;;;;29.63;14.75;;;;;;;19.97;100.00;95769.44;5037505;28;20208;-72
2022/08/19 00:49:53;;;;;;;33.55;15.50;;;;;;;19.93;100.00;95783.53;5037882;28;20559;-72
2022/08/19 00:52:24;;;;;;;32.10;15.95;;;;;;;20.04;100.00;95775.41;5036786;28;20197;-72
2022/08/19 00:54:53;;;;;;;32.50;16.48;;;;;;;20.04;100.00;95780.75;5037390;28;20217;-72
2022/08/19 00:57:26;;;;;;;30.45;14.77;;;;;;;20.01;100.00;95781.25;5037482;28;20232;-72
2022/08/19 00:59:57;;;;;;;30.05;14.93;;;;;;;19.86;100.00;95772.97;5037754;28;20992;-72
2022/08/19 01:02:24;;;;;;;26.20;12.27;;;;;;;19.58;100.00;95775.72;5036561;28;20205;-72
2022/08/19 01:04:50;;;;;;;23.70;12.57;;;;;;;19.41;100.00;95770.63;5037468;28;20225;-72
2022/08/19 01:07:18;;;;;;;30.50;14.45;;;;;;;19.26;100.00;95775.72;5038001;28;20695;-72
2022/08/19 01:09:45;;;;;;;33.42;15.93;;;;;;;19.27;100.00;95770.16;5037895;28;20207;-72
2022/08/19 01:12:11;;;;;;;33.72;16.17;;;;;;;19.26;100.00;95781.88;5037598;28;20657;-72
2022/08/19 01:14:40;;;;;;;37.83;17.83;;;;;;;19.46;100.00;95774.19;5037298;28;20224;-72
2022/08/19 01:17:09;;;;;;;34.13;17.00;;;;;;;19.48;100.00;95780.09;5037779;28;20201;-72
2022/08/19 01:19:38;;;;;;;32.90;17.77;;;;;;;19.33;100.00;95779.84;5034249;28;20209;-72
2022/08/19 01:22:12;;;;;;;33.47;17.73;;;;;;;19.47;100.00;95777.69;5037728;28;20617;-72
2022/08/19 01:24:40;;;;;;;31.70;16.33;;;;;;;19.34;100.00;95775.34;5036182;28;20224;-72
2022/08/19 01:27:08;;;;;;;38.70;17.60;;;;;;;19.46;100.00;95781.41;5037415;28;20209;-72
2022/08/19 01:29:39;;;;;;;33.97;17.10;;;;;;;19.58;100.00;95781.06;5038275;28;20197;-72
2022/08/19 01:32:07;;;;;;;35.40;17.75;;;;;;;19.48;100.00;95772.09;5037152;28;20205;-72
2022/08/19 01:34:34;;;;;;;33.53;16.95;;;;;;;19.54;100.00;95770.31;5036693;28;20228;-72
2022/08/19 01:37:10;;;;;;;32.88;16.98;;;;;;;19.72;100.00;95760.97;5036701;28;20291;-72
2022/08/19 01:39:38;;;;;;;36.03;17.25;;;;;;;19.60;100.00;95765.63;5037960;28;20275;-72
2022/08/19 01:42:07;;;;;;;31.45;16.83;;;;;;;19.54;100.00;95765.78;5038791;28;20209;-72
2022/08/19 01:44:36;;;;;;;35.00;17.05;;;;;;;19.47;100.00;95762.44;5040794;28;20351;-72
2022/08/19 01:47:03;;;;;;;33.60;17.25;;;;;;;19.53;100.00;95760.69;5041408;28;20207;-72
2022/08/19 01:49:30;;;;;;;37.42;18.10;;;;;;;19.57;100.00;95764.50;5041321;28;20193;-72
2022/08/19 01:51:58;;;;;;;32.35;17.70;;;;;;;19.43;100.00;95768.53;5040748;28;20224;-72
2022/08/19 01:54:25;;;;;;;35.33;18.48;;;;;;;19.51;100.00;95773.47;5040646;28;20308;-72
2022/08/19 01:56:54;;;;;;;37.38;18.10;;;;;;;19.62;100.00;95758.16;5040868;28;20205;-73
2022/08/19 01:59:24;;;;;;;35.97;18.30;;;;;;;19.74;100.00;95758.88;5041137;28;20201;-72
2022/08/19 02:01:51;;;;;;;31.63;17.05;;;;;;;19.57;100.00;95768.75;5041018;28;20212;-72
2022/08/19 02:04:17;;;;;;;36.45;18.90;;;;;;;19.63;100.00;95777.69;5040140;28;20826;-72
2022/08/19 02:06:44;;;;;;;39.83;18.73;;;;;;;19.61;100.00;95783.28;5041179;28;20275;-72
2022/08/19 02:09:10;;;;;;;35.17;18.35;;;;;;;19.58;100.00;95791.78;5041460;28;20209;-72
2022/08/19 02:11:37;;;;;;;33.55;17.98;;;;;;;19.66;100.00;95799.38;5040850;28;20211;-72
2022/08/19 02:14:06;;;;;;;36.47;17.08;;;;;;;19.73;100.00;95794.69;5039886;28;20207;-72
2022/08/19 02:16:36;;;;;;;35.47;18.13;;;;;;;19.73;100.00;95788.53;5040658;28;20288;-72
2022/08/19 02:19:02;;;;;;;33.45;18.40;;;;;;;19.62;100.00;95786.75;5037930;28;21265;-73
2022/08/19 02:21:30;;;;;;;36.60;17.88;;;;;;;19.68;100.00;95770.56;5040820;28;20212;-72
2022/08/19 02:23:57;;;;;;;34.85;17.42;;;;;;;19.58;100.00;95769.59;5040260;28;20213;-72
2022/08/19 02:26:26;;;;;;;36.35;17.63;;;;;;;19.63;100.00;95775.03;5040789;28;20232;-72
2022/08/19 02:28:54;;;;;;;35.25;17.20;;;;;;;19.70;100.00;95773.81;5040344;28;20201;-72
2022/08/19 02:31:22;;;;;;;38.90;19.05;;;;;;;19.70;100.00;95765.78;5040498;28;20921;-72
2022/08/19 02:33:52;;;;;;;37.80;18.38;;;;;;;19.70;100.00;95754.25;5040060;28;20201;-72
2022/08/19 02:36:19;;;;;;;39.58;19.00;;;;;;;19.57;100.00;95754.59;5040506;28;20225;-72
2022/08/19 02:38:45;;;;;;;37.97;18.38;;;;;;;19.61;100.00;95751.22;5040061;28;20201;-72
2022/08/19 02:41:14;;;;;;;41.30;19.15;;;;;;;19.68;100.00;95746.50;5040303;28;20209;-72
2022/08/19 02:43:41;;;;;;;41.63;19.40;;;;;;;19.59;100.00;95744.47;5039119;28;21039;-72
2022/08/19 02:46:13;;;;;;;41.20;19.90;;;;;;;19.72;100.00;95744.94;5040306;28;20231;-72
2022/08/19 02:48:39;;;;;;;41.97;20.65;;;;;;;19.58;100.00;95753.56;5037003;28;20220;-72
2022/08/19 02:51:07;;;;;;;41.20;19.85;;;;;;;19.72;100.00;95747.63;5041383;28;20207;-72
2022/08/19 02:53:34;;;;;;;47.65;21.60;;;;;;;19.58;100.00;95753.56;5038833;28;20680;-72
2022/08/19 02:56:01;;;;;;;43.88;21.65;;;;;;;19.59;100.00;95755.97;5039617;28;20239;-73
2022/08/19 02:58:27;;;;;;;45.25;20.73;;;;;;;19.53;100.00;95764.16;5040542;28;20216;-73
2022/08/19 03:00:56;;;;;;;42.75;20.13;;;;;;;19.67;100.00;95762.78;5039922;28;20271;-73
2022/08/19 03:03:23;;;;;;;38.72;19.17;;;;;;;19.65;100.00;95764.88;5039014;28;20643;-73
2022/08/19 03:05:50;;;;;;;41.42;19.63;;;;;;;19.67;100.00;95768.91;5039173;28;20260;-73
2022/08/19 03:08:17;;;;;;;43.17;19.95;;;;;;;19.73;100.00;95767.97;5039911;28;20270;-73
2022/08/19 03:10:46;;;;;;;38.38;20.23;;;;;;;19.59;100.00;95761.31;5039682;28;20201;-72
2022/08/19 03:13:14;;;;;;;37.75;18.75;;;;;;;19.65;100.00;95768.38;5038962;28;20201;-72
2022/08/19 03:15:42;;;;;;;41.30;19.13;;;;;;;19.65;100.00;95763.03;5039677;28;20359;-72
2022/08/19 03:18:09;;;;;;;40.22;19.63;;;;;;;19.60;100.00;95760.28;5040013;28;20201;-73
2022/08/19 03:20:41;;;;;;;39.75;19.60;;;;;;;19.77;100.00;95753.03;5037565;28;20666;-73
2022/08/19 03:23:08;;;;;;;38.60;19.38;;;;;;;19.62;100.00;95768.03;5038999;28;20202;-73
2022/08/19 03:25:40;;;;;;;46.72;20.45;;;;;;;19.75;100.00;95760.47;5039473;28;20728;-73
2022/08/19 03:28:07;;;;;;;36.58;19.67;;;;;;;19.63;100.00;95762.44;5039627;28;20203;-73
2022/08/19 03:30:34;;;;;;;40.88;19.02;;;;;;;19.63;100.00;95757.09;5039334;28;20197;-73
2022/08/19 03:33:01;;;;;;;46.38;21.05;;;;;;;19.66;100.00;95767.28;5038065;28;20205;-73
2022/08/19 03:35:28;;;;;;;40.33;18.33;;;;;;;19.73;100.00;95765.28;5039431;28;20312;-73
2022/08/19 03:37:56;;;;;;;38.40;19.40;;;;;;;19.71;100.00;95764.69;5039344;28;20590;-73
2022/08/19 03:40:22;;;;;;;40.85;19.33;;;;;;;19.71;100.00;95762.03;5038698;28;20209;-73
2022/08/19 03:42:50;;;;;;;40.60;19.25;;;;;;;19.75;100.00;95760.47;5038728;28;20359;-72
2022/08/19 03:45:17;;;;;;;36.83;18.73;;;;;;;19.73;100.00;95765.28;5039186;28;20225;-72
2022/08/19 03:47:45;;;;;;;39.58;19.38;;;;;;;19.63;100.00;95762.44;5038867;28;20209;-72
2022/08/19 03:50:11;;;;;;;41.65;20.20;;;;;;;19.62;100.00;95758.16;5038735;28;21149;-72
2022/08/19 03:52:39;;;;;;;38.10;19.42;;;;;;;19.51;100.00;95754.75;5038507;28;20201;-72
2022/08/19 03:55:06;;;;;;;41.90;19.33;;;;;;;19.58;100.00;95754.34;5038662;28;20221;-72
2022/08/19 03:57:34;;;;;;;40.72;19.90;;;;;;;19.64;100.00;95753.38;5038813;28;20201;-72
2022/08/19 04:00:04;;;;;;;41.00;19.83;;;;;;;19.69;100.00;95748.13;5039259;28;20197;-73
2022/08/19 04:02:31;;;;;;;43.35;20.60;;;;;;;19.61;100.00;95755.72;5037619;28;20204;-73
2022/08/19 04:04:57;;;;;;;38.38;18.60;;;;;;;19.56;100.00;95754.84;5037959;28;20252;-73
2022/08/19 04:07:24;;;;;;;39.88;20.00;;;;;;;19.60;100.00;95752.25;5038876;28;20225;-73
2022/08/19 04:09:51;;;;;;;41.72;19.95;;;;;;;19.57;100.00;95751.91;5039055;28;20320;-73
2022/08/19 04:12:20;;;;;;;41.30;20.75;;;;;;;19.62;100.00;95754.69;5038054;28;20208;-73
2022/08/19 04:14:47;;;;;;;41.42;19.15;;;;;;;19.63;100.00;95748.28;5038637;28;20232;-73
2022/08/19 04:17:15;;;;;;;40.35;19.55;;;;;;;19.60;100.00;95746.91;5038699;28;20198;-73
2022/08/19 04:19:42;;;;;;;43.55;20.23;;;;;;;19.55;100.00;95742.53;5035840;28;20220;-73
2022/08/19 04:22:10;;;;;;;39.25;19.95;;;;;;;19.50;100.00;95743.28;5038909;28;20284;-73
2022/08/19 04:24:37;;;;;;;44.08;20.95;;;;;;;19.51;100.00;95744.06;5037893;28;20224;-73
2022/08/19 04:27:05;;;;;;;43.22;20.45;;;;;;;19.60;100.00;95743.41;5038029;28;20268;-73
2022/08/19 04:29:32;;;;;;;41.88;19.98;;;;;;;19.51;100.00;95752.88;5038109;28;20204;-73
2022/08/19 04:31:59;;;;;;;44.25;20.83;;;;;;;19.62;100.00;95755.47;5038569;28;20748;-72
2022/08/19 04:34:29;;;;;;;43.90;20.80;;;;;;;19.70;100.00;95755.09;5037507;28;20201;-72
2022/08/19 04:36:58;;;;;;;41.95;20.38;;;;;;;19.69;100.00;95750.78;5038148;28;20725;-72
2022/08/19 04:42:38;;;;;;;42.92;20.90;;;;;;;19.74;100.00;95747.38;5038539;28;20213;-72
2022/08/19 04:45:02;;;;;;;42.60;19.67;;;;;;;19.61;100.00;95751.22;5038048;28;20259;-72
2022/08/19 04:47:32;;;;;;;40.40;19.77;;;;;;;19.44;100.00;95757.59;5038303;28;20228;-72
2022/08/19 04:50:00;;;;;;;42.72;20.13;;;;;;;19.57;100.00;95771.44;5037937;28;20259;-72
2022/08/19 04:52:26;;;;;;;41.08;19.50;;;;;;;19.55;100.00;95774.59;5037570;28;20205;-72
2022/08/19 04:54:53;;;;;;;42.75;20.13;;;;;;;19.51;100.00;95776.94;5037924;28;20225;-73
2022/08/19 04:57:19;;;;;;;43.60;20.38;;;;;;;19.58;100.00;95788.28;5037870;28;20203;-73
2022/08/19 04:59:46;;;;;;;42.92;20.02;;;;;;;19.61;100.00;95798.50;5037570;28;20208;-73
2022/08/19 05:02:12;;;;;;;46.55;20.20;;;;;;;19.57;100.00;95812.59;5037861;28;20208;-73
2022/08/19 05:04:39;;;;;;;45.97;21.08;;;;;;;19.53;100.00;95806.91;5037489;28;20236;-73
2022/08/19 05:07:08;;;;;;;45.92;21.35;;;;;;;19.64;100.00;95806.84;5037217;28;20275;-73
2022/08/19 05:09:35;;;;;;;41.70;20.23;;;;;;;19.61;100.00;95812.69;5037155;28;20201;-72
2022/08/19 05:12:01;;;;;;;46.22;20.30;;;;;;;19.66;100.00;95810.06;5037685;28;20571;-72
2022/08/19 05:14:29;;;;;;;42.33;20.00;;;;;;;19.60;100.00;95811.06;5036405;28;20350;-72
2022/08/19 05:16:55;;;;;;;46.08;21.15;;;;;;;19.66;100.00;95811.94;5035565;28;20212;-73
2022/08/19 05:24:50;;;;;;;44.10;21.23;;;;;;;19.63;100.00;95820.47;5028320;28;20235;-73
2022/08/19 05:27:17;;;;;;;43.75;20.88;;;;;;;19.61;100.00;95827.91;5037146;28;20221;-73
2022/08/19 05:29:43;;;;;;;45.28;20.05;;;;;;;19.60;100.00;95835.13;5035855;28;20216;-72
2022/08/19 05:32:10;;;;;;;40.33;19.73;;;;;;;19.57;100.00;95835.59;5035318;28;20205;-73
2022/08/19 05:34:37;;;;;;;42.90;20.73;;;;;;;19.60;100.00;95829.78;5035827;28;20228;-73
2022/08/19 05:37:05;;;;;;;48.00;20.35;;;;;;;19.68;100.00;95834.72;5035675;28;20220;-73
2022/08/19 05:39:35;;;;;;;43.58;20.63;;;;;;;19.79;100.00;95839.19;5035137;28;20285;-72
2022/08/19 05:42:05;;;;;;;45.08;21.52;;;;;;;19.73;100.00;95842.81;5034548;28;20582;-72
2022/08/19 05:44:34;;;;;;;41.58;19.73;;;;;;;19.74;100.00;95849.78;5035392;28;20221;-72
2022/08/19 05:47:01;;;;;;;44.92;20.73;;;;;;;19.70;100.00;95861.19;5035708;28;20244;-72
2022/08/19 05:49:29;;;;;;;42.30;20.02;;;;;;;19.67;100.00;95845.66;5036090;28;20749;-72
2022/08/19 05:51:56;;;;;;;40.78;20.17;;;;;;;19.72;100.00;95841.19;5036124;28;20212;-72
2022/08/19 05:54:23;;;;;;;46.28;20.95;;;;;;;19.64;100.00;95844.28;5034787;28;20201;-72
2022/08/19 05:56:53;;;;;;;42.30;19.40;;;;;;;19.53;100.00;95835.53;5035807;28;20587;-72
2022/08/19 05:59:21;;;;;;;47.58;21.38;;;;;;;19.54;100.00;95843.28;5035757;28;20201;-72
2022/08/19 06:01:50;;;;;;;39.33;19.38;;;;;;;19.44;100.00;95853.00;5035593;28;20822;-72
2022/08/19 06:04:18;;;;;;;42.60;19.90;;;;;;;19.51;100.00;95849.09;5035551;28;20564;-72
2022/08/19 06:06:45;;;;;;;40.95;19.55;;;;;;;19.59;100.00;95852.19;5035886;28;20232;-72
2022/08/19 06:09:12;;;;;;;43.75;19.50;;;;;;;19.54;100.00;95842.47;5036172;28;20622;-72
2022/08/19 06:11:43;;;;;;;41.95;19.33;;;;;;;19.57;100.00;95838.25;5033809;28;20327;-72
2022/08/19 06:14:14;;;;;;;38.50;18.27;;;;;;;19.48;100.00;95832.75;5034810;28;20306;-72
2022/08/19 06:16:42;;;;;;;41.45;18.33;;;;;;;19.40;100.00;95831.28;5035853;28;20209;-72
2022/08/19 06:19:11;;;;;;;42.95;18.67;;;;;;;19.11;100.00;95826.22;5032950;28;20198;-72
2022/08/19 06:21:40;;;;;;;43.05;19.15;;;;;;;19.05;100.00;95832.47;5036187;28;20212;-72
2022/08/19 06:24:09;;;;;;;43.78;19.20;;;;;;;19.14;100.00;95825.72;5034811;28;20213;-72
2022/08/19 06:26:37;;;;;;;45.40;20.02;;;;;;;19.07;100.00;95825.06;5035923;28;20311;-73
2022/08/19 06:29:05;;;;;;;44.70;19.85;;;;;;;18.96;100.00;95816.03;5037051;28;20213;-72
2022/08/19 06:31:35;;;;;;;43.53;17.10;;;;;;;18.92;100.00;95815.94;5039202;28;20247;-71
2022/08/19 06:34:05;;;;;;;44.20;18.13;;;;;;;18.80;100.00;95823.97;5036914;28;20302;-71
2022/08/19 06:36:36;;;;;;;37.53;15.77;;;;;;;18.83;100.00;95814.69;5037275;28;20245;-71
2022/08/19 06:39:06;;;;;;;42.83;17.65;;;;;;;18.86;100.00;95817.66;5038646;28;20215;-72
2022/08/19 06:41:36;;;;;;;41.72;17.63;;;;;;;18.88;100.00;95826.25;5038243;28;20204;-71
2022/08/19 06:44:03;;;;;;;40.40;17.95;;;;;;;18.84;100.00;95824.28;5037688;28;20201;-71
2022/08/19 06:46:30;;;;;;;42.28;18.50;;;;;;;18.72;100.00;95824.31;5038153;28;20234;-71
2022/08/19 06:48:58;;;;;;;40.88;17.45;;;;;;;18.87;100.00;95829.19;5038553;28;20262;-71
2022/08/19 06:51:25;;;;;;;45.85;19.33;;;;;;;18.73;100.00;95825.97;5038056;28;20209;-71
2022/08/19 06:53:55;;;;;;;43.88;18.17;;;;;;;18.77;100.00;95829.78;5037108;28;20209;-71
2022/08/19 06:56:30;;;;;;;40.50;17.52;;;;;;;18.98;100.00;95837.16;5037584;28;20232;-72
2022/08/19 06:58:57;;;;;;;42.05;18.13;;;;;;;18.88;100.00;95839.63;5037828;28;20288;-72
2022/08/19 07:01:23;;;;;;;46.65;19.48;;;;;;;18.99;100.00;95844.09;5038197;28;20205;-72
2022/08/19 07:03:49;;;;;;;45.85;19.30;;;;;;;18.97;100.00;95847.00;5036909;28;20216;-72
2022/08/19 07:06:19;;;;;;;45.60;18.48;;;;;;;19.22;100.00;95844.03;5037116;28;20221;-72
2022/08/19 07:08:47;;;;;;;45.38;17.20;;;;;;;19.04;100.00;95849.53;5038109;28;20205;-71
2022/08/19 07:11:17;;;;;;;41.42;17.38;;;;;;;19.16;100.00;95850.34;5037494;28;20223;-72
2022/08/19 07:13:45;;;;;;;41.00;18.25;;;;;;;19.03;100.00;95851.41;5036304;28;20212;-71
2022/08/19 07:16:14;;;;;;;40.10;17.70;;;;;;;19.08;100.00;95854.19;5037223;28;20221;-71
2022/08/19 07:18:41;;;;;;;34.83;15.13;;;;;;;19.04;100.00;95855.69;5035305;28;20205;-71
2022/08/19 07:21:11;;;;;;;38.15;15.65;;;;;;;19.11;100.00;95850.25;5036956;28;20205;-71
2022/08/19 07:23:39;;;;;;;38.90;16.40;;;;;;;19.16;100.00;95853.00;5036829;28;20201;-72
2022/08/19 07:26:08;;;;;;;31.80;14.38;;;;;;;18.95;100.00;95850.94;5036161;28;20220;-72
2022/08/19 07:28:38;;;;;;;38.08;15.95;;;;;;;19.08;100.00;95854.19;5037350;28;20217;-72
2022/08/19 07:31:06;;;;;;;32.05;14.13;;;;;;;19.06;100.00;95855.50;5036097;28;20201;-72
2022/08/19 07:33:33;;;;;;;32.28;15.05;;;;;;;19.10;100.00;95857.44;5036976;28;20198;-72
2022/08/19 07:36:00;;;;;;;31.95;15.10;;;;;;;19.19;100.00;95860.53;5036928;28;20252;-72
2022/08/19 07:38:26;;;;;;;30.77;14.57;;;;;;;19.25;100.00;95856.94;5036710;28;20201;-72
2022/08/19 07:40:54;;;;;;;32.83;14.57;;;;;;;19.46;100.00;95850.88;5036268;28;20212;-72
2022/08/19 07:43:22;;;;;;;24.05;10.73;;;;;;;19.20;100.00;95848.81;5037581;28;20291;-71
2022/08/19 07:45:49;;;;;;;24.52;11.50;;;;;;;19.21;100.00;95851.25;5037226;28;20713;-71
2022/08/19 07:48:15;;;;;;;23.80;11.02;;;;;;;19.23;100.00;95856.34;5035964;28;20221;-71
2022/08/19 07:50:42;;;;;;;23.10;10.63;;;;;;;19.38;100.00;95861.97;5037002;28;20205;-71
2022/08/19 07:53:08;;;;;;;23.98;9.63;;;;;;;19.22;100.00;95860.06;5036503;28;20205;-71
2022/08/19 07:55:35;;;;;;;17.95;8.82;;;;;;;19.04;100.00;95861.03;5036655;28;20225;-71
2022/08/19 07:58:04;;;;;;;20.40;8.65;;;;;;;19.14;100.00;95863.13;5036025;28;20201;-71
2022/08/19 08:00:31;;;;;;;19.92;9.02;;;;;;;19.12;100.00;95868.69;5037168;28;20201;-71
2022/08/19 08:02:57;;;;;;;16.13;8.73;;;;;;;18.78;100.00;95860.75;5036551;28;20205;-71
2022/08/19 08:10:53;;;;;;;16.52;8.73;;;;;;;18.98;100.00;95871.88;5037079;28;20251;-71
2022/08/19 08:13:21;;;;;;;18.63;8.88;;;;;;;19.01;100.00;95874.06;5036390;28;20896;-71
2022/08/19 08:15:47;;;;;;;18.90;9.40;;;;;;;18.88;100.00;95869.00;5037489;28;20225;-71
2022/08/19 08:18:14;;;;;;;17.77;9.50;;;;;;;18.73;100.00;95874.00;5037073;28;20201;-71
2022/08/19 08:20:40;;;;;;;21.27;9.75;;;;;;;18.84;100.00;95873.19;5034943;28;20240;-71
2022/08/19 08:23:25;;;;;;;19.17;9.05;;;;;;;18.77;100.00;95869.81;5036501;28;20212;-71
2022/08/19 08:25:54;;;;;;;16.73;8.13;;;;;;;18.68;100.00;95873.91;5037373;28;20232;-71
2022/08/19 08:28:22;;;;;;;19.67;9.05;;;;;;;18.70;100.00;95870.97;5037542;28;20256;-71
2022/08/19 08:30:50;;;;;;;19.40;9.88;;;;;;;18.65;100.00;95855.69;5036890;28;20212;-71
2022/08/19 08:33:19;;;;;;;24.75;10.50;;;;;;;18.67;100.00;95853.63;5036153;28;20212;-71
2022/08/19 08:35:46;;;;;;;23.58;10.63;;;;;;;18.43;100.00;95857.38;5036001;28;20764;-72
2022/08/19 08:38:12;;;;;;;23.92;10.93;;;;;;;18.61;100.00;95861.72;5037114;28;20954;-72
2022/08/19 08:40:44;;;;;;;29.38;12.40;;;;;;;18.67;100.00;95864.28;5038488;28;20204;-72
2022/08/19 08:43:22;;;;;;;29.13;12.13;;;;;;;18.70;100.00;95861.13;5037602;28;20689;-72
2022/08/19 08:45:57;;;;;;;28.95;12.80;;;;;;;18.76;100.00;95857.53;5038788;28;20260;-72
2022/08/19 08:48:32;;;;;;;29.73;13.35;;;;;;;18.78;100.00;95863.44;5038829;28;20220;-72
2022/08/19 08:51:02;;;;;;;28.38;12.55;;;;;;;18.81;100.00;95872.84;5037553;28;20287;-72
2022/08/19 08:53:29;;;;;;;31.20;13.32;;;;;;;18.78;100.00;95868.78;5038462;28;20215;-71
2022/08/19 08:55:55;;;;;;;30.23;13.63;;;;;;;18.83;100.00;95871.56;5037868;28;20232;-71
2022/08/19 08:58:31;;;;;;;26.80;12.27;;;;;;;18.93;100.00;95872.56;5036873;28;20197;-71
2022/08/19 09:00:59;;;;;;;24.10;12.27;;;;;;;18.94;100.00;95878.72;5036644;28;20211;-72
2022/08/19 09:03:27;;;;;;;26.98;12.52;;;;;;;18.94;100.00;95873.38;5037994;28;20205;-72
2022/08/19 09:06:00;;;;;;;30.90;13.25;;;;;;;18.98;100.00;95882.53;5035953;28;20236;-72
2022/08/19 09:08:38;;;;;;;28.10;13.38;;;;;;;18.89;100.00;95891.16;5036499;28;20217;-72
2022/08/19 09:11:08;;;;;;;28.77;14.05;;;;;;;18.84;100.00;95878.53;5037776;28;20292;-72
2022/08/19 09:13:43;;;;;;;34.00;14.38;;;;;;;18.90;100.00;95877.56;5036162;28;20202;-72
2022/08/19 09:16:13;;;;;;;39.17;14.70;;;;;;;18.91;100.00;95876.50;5036024;28;20224;-72
2022/08/19 09:18:43;;;;;;;36.35;15.07;;;;;;;18.96;100.00;95876.63;5034500;28;20294;-72
2022/08/19 09:21:11;;;;;;;39.92;16.30;;;;;;;19.01;100.00;95874.06;5037241;28;20201;-72
2022/08/19 09:23:38;;;;;;;37.33;15.88;;;;;;;18.99;100.00;95876.13;5036441;28;20637;-72
2022/08/19 09:26:08;;;;;;;42.25;16.70;;;;;;;19.18;100.00;95880.28;5036966;28;20220;-72
2022/08/19 09:28:36;;;;;;;42.88;16.75;;;;;;;19.00;100.00;95886.59;5037523;28;20220;-72
2022/08/19 09:31:02;;;;;;;39.33;16.70;;;;;;;19.27;100.00;95889.53;5036904;28;20201;-72
2022/08/19 09:33:30;;;;;;;42.97;16.90;;;;;;;19.38;100.00;95875.34;5037513;28;20950;-72
2022/08/19 09:36:09;;;;;;;42.92;17.40;;;;;;;19.50;100.00;95876.91;5036642;28;20597;-72
2022/08/19 09:38:35;;;;;;;42.00;17.00;;;;;;;19.32;100.00;95877.09;5035920;28;20200;-72
2022/08/19 09:41:06;;;;;;;40.70;17.98;;;;;;;19.41;100.00;95875.69;5036028;28;20375;-72
2022/08/19 09:43:33;;;;;;;47.80;18.65;;;;;;;19.50;100.00;95878.75;5036338;28;20220;-72
2022/08/19 09:46:00;;;;;;;42.40;18.48;;;;;;;19.52;100.00;95888.16;5037893;28;20311;-72
2022/08/19 09:48:27;;;;;;;44.47;18.90;;;;;;;19.67;100.00;95891.09;5037325;28;20249;-72
2022/08/19 09:50:55;;;;;;;45.08;19.23;;;;;;;19.82;100.00;95886.81;5037431;28;20216;-72
2022/08/19 09:53:22;;;;;;;44.30;18.00;;;;;;;19.79;100.00;95892.66;5035373;28;20741;-72
2022/08/19 09:55:49;;;;;;;46.10;19.25;;;;;;;19.88;100.00;95890.38;5032825;28;21099;-72
2022/08/19 09:58:16;;;;;;;42.50;18.67;;;;;;;20.00;100.00;95889.28;5035707;28;20212;-72
2022/08/19 10:00:42;;;;;;;44.78;19.00;;;;;;;20.03;100.00;95902.16;5035452;28;20201;-72
2022/08/19 10:03:10;;;;;;;45.45;19.70;;;;;;;20.00;100.00;95893.84;5036971;28;20201;-72
2022/08/19 10:05:49;;;;;;;41.78;19.83;;;;;;;19.91;100.00;95897.97;5041055;28;20224;-72
2022/08/19 10:08:19;;;;;;;41.55;18.25;;;;;;;19.97;100.00;95902.34;5040592;28;20220;-72
2022/08/19 10:10:47;;;;;;;45.10;19.70;;;;;;;19.72;100.00;95907.22;5041700;28;20633;-72
2022/08/19 10:13:16;;;;;;;40.13;19.05;;;;;;;19.80;100.00;95904.16;5040096;28;20201;-72
2022/08/19 10:15:43;;;;;;;40.60;19.55;;;;;;;19.82;100.00;95905.53;5041268;28;20236;-72
2022/08/19 10:18:10;;;;;;;43.35;18.63;;;;;;;19.76;100.00;95909.16;5040388;28;20208;-72
2022/08/19 10:20:36;;;;;;;48.08;20.45;;;;;;;19.91;100.00;95914.03;5039934;28;20306;-72
2022/08/19 10:23:03;;;;;;;53.50;21.30;;;;;;;19.81;100.00;95911.94;5039756;28;20201;-72
2022/08/19 10:25:33;;;;;;;47.63;20.23;;;;;;;19.95;100.00;95902.59;5041158;28;20228;-72
2022/08/19 10:28:00;;;;;;;41.40;19.20;;;;;;;19.82;100.00;95905.53;5040547;28;20706;-72
2022/08/19 10:30:27;;;;;;;44.70;19.98;;;;;;;19.78;100.00;95915.09;5039829;28;20201;-71
2022/08/19 10:32:54;;;;;;;47.30;20.35;;;;;;;19.79;100.00;95910.56;5038085;28;20638;-71
2022/08/19 10:35:20;;;;;;;44.92;20.30;;;;;;;19.79;100.00;95922.06;5039602;28;20224;-71
2022/08/19 10:37:47;;;;;;;48.05;18.83;;;;;;;19.77;100.00;95918.81;5038756;28;20201;-71
2022/08/19 10:40:13;;;;;;;54.42;21.27;;;;;;;19.82;100.00;95910.09;5036564;28;20217;-71
2022/08/19 10:42:41;;;;;;;49.80;22.10;;;;;;;19.87;100.00;95924.34;5034544;28;20209;-71
2022/08/19 10:45:09;;;;;;;47.72;21.13;;;;;;;19.88;100.00;95915.28;5037377;28;20586;-71
2022/08/19 10:47:36;;;;;;;54.42;22.20;;;;;;;19.77;100.00;95923.38;5036694;28;20202;-71
2022/08/19 10:52:50;;;;;;;44.60;21.33;;;;;;;19.80;100.00;95918.31;5035293;28;20221;-71
2022/08/19 10:58:04;;;;;;;50.30;19.52;;;;;;;19.79;100.00;95916.72;5036454;28;20200;-71
2022/08/19 11:00:30;;;;;;;52.25;23.15;;;;;;;19.52;100.00;95911.41;5037201;28;20211;-71
2022/08/19 11:02:57;;;;;;;55.92;22.70;;;;;;;19.68;100.00;95914.91;5037095;28;20233;-71
2022/08/19 11:05:23;;;;;;;55.15;22.10;;;;;;;19.67;100.00;95907.94;5037717;28;20217;-71
2022/08/19 11:07:51;;;;;;;47.03;20.50;;;;;;;19.50;100.00;95910.81;5037907;28;20924;-72
2022/08/19 11:10:18;;;;;;;54.92;22.77;;;;;;;19.59;100.00;95908.34;5037651;28;20740;-71
2022/08/19 11:12:46;;;;;;;50.60;21.65;;;;;;;19.38;100.00;95915.41;5037257;28;20259;-71
2022/08/19 11:15:14;;;;;;;44.72;19.80;;;;;;;19.49;100.00;95919.88;5038773;28;20282;-72
2022/08/19 11:17:42;;;;;;;44.65;20.02;;;;;;;19.33;100.00;95910.78;5038633;28;20209;-72
2022/08/19 11:20:10;;;;;;;44.95;19.13;;;;;;;19.53;100.00;95916.50;5034102;28;20202;-72
2022/08/19 11:22:37;;;;;;;43.17;20.58;;;;;;;19.34;100.00;95916.94;5038645;28;20197;-72
2022/08/19 11:25:04;;;;;;;48.92;19.80;;;;;;;19.36;100.00;95921.00;5037285;28;20221;-72
2022/08/19 11:27:31;;;;;;;50.30;21.00;;;;;;;19.30;100.00;95918.47;5038012;28;20212;-72
2022/08/19 11:29:57;;;;;;;51.30;21.13;;;;;;;19.32;100.00;95911.84;5038575;28;20260;-72
2022/08/19 11:32:25;;;;;;;48.55;20.35;;;;;;;19.50;100.00;95910.81;5037498;28;20197;-72